Time;durP1;ratioP1;P1;durP2;ratioP2;P2;SDS_P1;SDS_P2;PMS_P1;PMS_P2;Temp;Humidity;BMP_temperature;BMP_pressure;BME280_temperature;BME280_humidity;BME280_pressure;Samples;Min_cycle;Max_cycle;Signal;HPM_P1;HPM_P2
2022/10/16 00:00:27;;;;;;;5.55;2.63;;;15.70;99.90;;;;;;2091106;28;20029;-71
2022/10/16 00:01:30;;;;;;;5.38;2.67;;;15.60;99.90;;;;;;2089739;28;20484;-71
2022/10/16 00:02:30;;;;;;;3.78;2.38;;;15.60;99.90;;;;;;2091553;28;20036;-71
2022/10/16 00:03:31;;;;;;;6.15;2.83;;;15.60;99.90;;;;;;2088977;28;20067;-71
2022/10/16 00:04:31;;;;;;;4.93;2.63;;;15.60;99.90;;;;;;2090646;28;20039;-71
2022/10/16 00:05:32;;;;;;;4.50;2.15;;;15.60;99.90;;;;;;2090975;28;20052;-71
2022/10/16 00:06:33;;;;;;;5.47;2.67;;;15.60;99.90;;;;;;2091350;28;20059;-71
2022/10/16 00:07:34;;;;;;;6.38;2.72;;;15.60;99.90;;;;;;2090894;28;20025;-71
2022/10/16 00:08:35;;;;;;;5.20;2.65;;;15.60;99.90;;;;;;2088802;28;20056;-71
2022/10/16 00:09:35;;;;;;;5.63;2.00;;;15.60;99.90;;;;;;2091134;28;20024;-71
2022/10/16 00:10:36;;;;;;;5.22;2.42;;;15.60;99.90;;;;;;2090260;28;20028;-71
2022/10/16 00:11:39;;;;;;;5.35;2.30;;;15.60;99.90;;;;;;2089973;28;20098;-71
2022/10/16 00:12:39;;;;;;;9.18;2.47;;;15.60;99.90;;;;;;2090896;28;20043;-71
2022/10/16 00:13:42;;;;;;;4.63;2.60;;;15.60;99.90;;;;;;2089504;28;20059;-71
2022/10/16 00:14:43;;;;;;;4.90;2.10;;;15.60;99.90;;;;;;2088704;28;20045;-71
2022/10/16 00:15:44;;;;;;;4.30;2.15;;;15.60;99.90;;;;;;2090999;28;20024;-71
2022/10/16 00:16:44;;;;;;;3.72;2.10;;;15.60;99.90;;;;;;2089912;28;20022;-71
2022/10/16 00:17:45;;;;;;;3.03;2.10;;;15.60;99.90;;;;;;2091365;28;20028;-71
2022/10/16 00:18:46;;;;;;;5.70;2.35;;;15.60;99.90;;;;;;2090741;28;20021;-71
2022/10/16 00:19:46;;;;;;;5.15;2.00;;;15.60;99.90;;;;;;2090251;28;20079;-71
2022/10/16 00:20:47;;;;;;;3.58;2.00;;;15.60;99.90;;;;;;2089386;28;20663;-71
2022/10/16 00:21:47;;;;;;;4.18;2.38;;;15.60;99.90;;;;;;2091527;28;20025;-71
2022/10/16 00:22:48;;;;;;;4.75;2.30;;;15.60;99.90;;;;;;2091795;28;20021;-71
2022/10/16 00:23:53;;;;;;;4.32;1.90;;;15.60;99.90;;;;;;2089082;28;20100;-71
2022/10/16 00:24:54;;;;;;;3.53;1.95;;;15.60;99.90;;;;;;2086966;28;20140;-71
2022/10/16 00:26:00;;;;;;;2.92;1.90;;;15.50;99.90;;;;;;2090072;28;20200;-71
2022/10/16 00:27:00;;;;;;;4.57;2.50;;;15.50;99.90;;;;;;2090477;28;20037;-71
2022/10/16 00:28:01;;;;;;;4.40;2.30;;;15.60;99.90;;;;;;2089213;28;20100;-71
2022/10/16 00:29:02;;;;;;;4.93;1.92;;;15.60;99.90;;;;;;2089655;28;20056;-71
2022/10/16 00:30:03;;;;;;;3.58;2.08;;;15.60;99.90;;;;;;2091111;28;20130;-71
2022/10/16 00:31:11;;;;;;;5.75;2.30;;;15.60;99.90;;;;;;2090539;28;20120;-71
2022/10/16 00:32:11;;;;;;;3.67;2.33;;;15.50;99.90;;;;;;2091663;28;20940;-71
2022/10/16 00:33:12;;;;;;;5.97;2.00;;;15.50;99.90;;;;;;2089383;28;20059;-71
2022/10/16 00:34:12;;;;;;;4.70;2.35;;;15.60;99.90;;;;;;2090246;28;20028;-71
2022/10/16 00:35:13;;;;;;;2.95;2.03;;;15.60;99.90;;;;;;2091095;28;20029;-71
2022/10/16 00:36:17;;;;;;;4.13;2.00;;;15.50;99.90;;;;;;2088592;28;20024;-71
2022/10/16 00:37:18;;;;;;;3.60;1.80;;;15.60;99.90;;;;;;2090116;28;20021;-71
2022/10/16 00:38:18;;;;;;;3.45;2.08;;;15.60;99.90;;;;;;2090105;28;20021;-71
2022/10/16 00:39:19;;;;;;;4.93;2.78;;;15.50;99.90;;;;;;2091342;28;20028;-71
2022/10/16 00:40:19;;;;;;;2.53;1.90;;;15.50;99.90;;;;;;2089549;28;20025;-71
2022/10/16 00:41:21;;;;;;;4.22;2.13;;;15.50;99.90;;;;;;2089848;28;20036;-71
2022/10/16 00:42:22;;;;;;;5.07;2.15;;;15.50;99.90;;;;;;2089816;28;20025;-71
2022/10/16 00:43:48;;;;;;;2.75;1.77;;;15.50;99.90;;;;;;2089932;28;20116;-71
2022/10/16 00:44:56;;;;;;;4.10;2.33;;;15.50;99.90;;;;;;2091710;28;20032;-71
2022/10/16 00:45:57;;;;;;;5.72;2.00;;;15.50;99.90;;;;;;2089418;28;20029;-71
2022/10/16 00:46:58;;;;;;;3.47;1.98;;;15.50;99.90;;;;;;2089433;28;20029;-71
2022/10/16 00:47:58;;;;;;;3.15;1.95;;;15.50;99.90;;;;;;2090073;28;20032;-71
2022/10/16 00:49:04;;;;;;;3.33;2.05;;;15.50;99.90;;;;;;2091803;28;21283;-71
2022/10/16 00:50:16;;;;;;;3.53;2.13;;;15.50;99.90;;;;;;2092150;28;20620;-71
2022/10/16 00:51:20;;;;;;;5.03;2.40;;;15.50;99.90;;;;;;2090210;28;20032;-71
2022/10/16 00:52:21;;;;;;;5.13;2.00;;;15.50;99.90;;;;;;2089174;28;20111;-71
2022/10/16 00:53:23;;;;;;;3.08;1.90;;;15.40;99.90;;;;;;2089499;28;20033;-71
2022/10/16 00:54:27;;;;;;;5.40;2.00;;;15.50;99.90;;;;;;2089920;28;20037;-73
2022/10/16 00:55:30;;;;;;;3.30;1.80;;;15.50;99.90;;;;;;2089660;28;20108;-72
2022/10/16 00:56:32;;;;;;;3.20;1.85;;;15.40;99.90;;;;;;2089674;28;20067;-72
2022/10/16 00:57:32;;;;;;;3.70;2.05;;;15.40;99.90;;;;;;2089803;28;20025;-72
2022/10/16 00:58:33;;;;;;;4.45;1.83;;;15.50;99.90;;;;;;2089904;28;20028;-72
2022/10/16 00:59:37;;;;;;;3.42;2.28;;;15.40;99.90;;;;;;2090111;28;20104;-72
2022/10/16 01:00:37;;;;;;;5.65;2.20;;;15.50;99.90;;;;;;2090242;28;20028;-71
2022/10/16 01:01:38;;;;;;;4.05;2.10;;;15.50;99.90;;;;;;2091751;28;20048;-71
2022/10/16 01:02:39;;;;;;;4.18;2.28;;;15.40;99.90;;;;;;2089342;28;20027;-71
2022/10/16 01:03:40;;;;;;;4.55;2.15;;;15.50;99.90;;;;;;2088062;28;20518;-72
2022/10/16 01:04:50;;;;;;;4.65;1.88;;;15.50;99.90;;;;;;2090019;28;20033;-71
2022/10/16 01:06:10;;;;;;;3.80;2.08;;;15.50;99.90;;;;;;2090552;28;20090;-71
2022/10/16 01:07:31;;;;;;;4.38;2.20;;;15.40;99.90;;;;;;2090488;28;20033;-71
2022/10/16 01:08:44;;;;;;;3.08;1.67;;;15.40;99.90;;;;;;2094414;28;20499;-71
2022/10/16 01:10:26;;;;;;;5.32;1.83;;;15.40;99.90;;;;;;2094127;28;20086;-71
2022/10/16 01:11:36;;;;;;;5.63;1.80;;;15.40;99.90;;;;;;2091107;28;20104;-71
2022/10/16 01:12:41;;;;;;;2.95;1.85;;;15.30;99.90;;;;;;2090768;28;20036;-71
2022/10/16 01:13:48;;;;;;;5.85;2.17;;;15.30;99.90;;;;;;2090442;28;20480;-71
2022/10/16 01:14:56;;;;;;;3.05;1.42;;;15.40;99.90;;;;;;2088653;28;20033;-71
2022/10/16 01:16:06;;;;;;;2.53;1.65;;;15.40;99.90;;;;;;2091381;28;20135;-71
2022/10/16 01:17:18;;;;;;;3.38;1.77;;;15.40;99.90;;;;;;2091099;28;20496;-71
2022/10/16 01:18:39;;;;;;;3.92;1.55;;;15.40;99.90;;;;;;2090836;28;20025;-71
2022/10/16 01:20:08;;;;;;;3.47;1.67;;;15.30;99.90;;;;;;2088324;28;20024;-71
2022/10/16 01:21:17;;;;;;;5.68;1.88;;;15.40;99.90;;;;;;2089140;28;20071;-71
2022/10/16 01:22:19;;;;;;;2.47;1.70;;;15.30;99.90;;;;;;2093078;28;20032;-71
2022/10/16 01:23:57;;;;;;;5.95;1.98;;;15.30;99.90;;;;;;2090453;28;20581;-71
2022/10/16 01:25:05;;;;;;;3.10;1.70;;;15.30;99.90;;;;;;2089231;28;20048;-71
2022/10/16 01:26:24;;;;;;;4.22;1.45;;;15.30;99.90;;;;;;2090283;28;20107;-71
2022/10/16 01:27:30;;;;;;;4.43;1.92;;;15.30;99.90;;;;;;2090443;28;20029;-71
2022/10/16 01:28:49;;;;;;;2.58;1.70;;;15.30;99.90;;;;;;2089532;28;20491;-71
2022/10/16 01:30:13;;;;;;;2.95;1.33;;;15.30;99.90;;;;;;2089407;28;20381;-71
2022/10/16 01:31:17;;;;;;;3.25;1.83;;;15.30;99.90;;;;;;2090350;28;20107;-71
2022/10/16 01:32:42;;;;;;;8.00;1.42;;;15.30;99.90;;;;;;2090351;28;20037;-71
2022/10/16 01:33:47;;;;;;;2.10;1.42;;;15.30;99.90;;;;;;2070002;28;20046;-71
2022/10/16 01:34:52;;;;;;;1.77;1.55;;;15.30;99.90;;;;;;2088733;28;20041;-71
2022/10/16 01:35:57;;;;;;;6.53;1.65;;;15.30;99.90;;;;;;2091060;28;20040;-71
2022/10/16 01:37:05;;;;;;;2.03;1.20;;;15.30;99.90;;;;;;2091302;28;20400;-71
2022/10/16 01:38:17;;;;;;;5.35;1.85;;;15.30;99.90;;;;;;2090967;28;20075;-71
2022/10/16 01:39:22;;;;;;;3.83;1.55;;;15.30;99.90;;;;;;2091922;28;20135;-71
2022/10/16 01:40:25;;;;;;;3.67;1.50;;;15.30;99.90;;;;;;2093524;28;20059;-71
2022/10/16 01:41:32;;;;;;;2.17;1.25;;;15.20;99.90;;;;;;2091818;28;20388;-71
2022/10/16 01:42:39;;;;;;;4.07;1.33;;;15.20;99.90;;;;;;2092316;28;20033;-71
2022/10/16 01:43:45;;;;;;;5.53;1.50;;;15.20;99.90;;;;;;2092462;28;20044;-71
2022/10/16 01:44:47;;;;;;;6.03;1.40;;;15.20;99.90;;;;;;2090342;28;20107;-71
2022/10/16 01:45:48;;;;;;;2.65;1.60;;;15.20;99.90;;;;;;2090019;28;20492;-71
2022/10/16 01:46:51;;;;;;;3.30;1.70;;;15.20;99.90;;;;;;2090959;28;20757;-71
2022/10/16 01:47:53;;;;;;;1.80;1.20;;;15.20;99.90;;;;;;2090858;28;20495;-71
2022/10/16 01:48:55;;;;;;;2.65;1.80;;;15.20;99.90;;;;;;2091467;28;20371;-71
2022/10/16 01:49:57;;;;;;;4.22;1.67;;;15.20;99.90;;;;;;2092181;28;20040;-71
2022/10/16 01:51:05;;;;;;;1.40;1.30;;;15.20;99.90;;;;;;2093003;28;20029;-71
2022/10/16 01:52:11;;;;;;;4.47;1.20;;;15.20;99.90;;;;;;2092896;28;20036;-71
2022/10/16 01:53:14;;;;;;;2.03;1.52;;;15.20;99.90;;;;;;2092290;28;20016;-71
2022/10/16 01:54:17;;;;;;;9.85;1.77;;;15.20;99.90;;;;;;2089552;28;20507;-71
2022/10/16 01:55:30;;;;;;;2.25;1.50;;;15.20;99.90;;;;;;2091262;28;20075;-71
2022/10/16 01:56:31;;;;;;;4.68;1.38;;;15.10;99.90;;;;;;2090838;28;20024;-71
2022/10/16 01:57:36;;;;;;;1.80;1.33;;;15.10;99.90;;;;;;2091156;28;20017;-71
2022/10/16 01:58:45;;;;;;;2.15;1.42;;;15.10;99.90;;;;;;2090960;28;20028;-71
2022/10/16 01:59:52;;;;;;;2.83;1.38;;;15.10;99.90;;;;;;2091212;28;20021;-71
2022/10/16 02:00:54;;;;;;;2.45;1.40;;;15.10;99.90;;;;;;2091060;28;20111;-71
2022/10/16 02:01:59;;;;;;;3.83;1.60;;;15.10;99.90;;;;;;2092464;28;20031;-71
2022/10/16 02:03:02;;;;;;;2.47;1.60;;;15.10;99.90;;;;;;2090920;28;20056;-71
2022/10/16 02:04:17;;;;;;;4.68;1.40;;;15.10;99.90;;;;;;2091171;28;20084;-71
2022/10/16 02:05:40;;;;;;;2.42;1.35;;;15.10;99.90;;;;;;2091184;28;20130;-71
2022/10/16 02:06:41;;;;;;;3.20;1.45;;;15.00;99.90;;;;;;2092822;28;20016;-71
2022/10/16 02:07:42;;;;;;;3.78;1.50;;;15.10;99.90;;;;;;2091960;28;20020;-71
2022/10/16 02:08:43;;;;;;;2.30;1.48;;;15.10;99.90;;;;;;2092635;28;20045;-71
2022/10/16 02:09:44;;;;;;;2.65;1.52;;;15.10;99.90;;;;;;2093874;28;20025;-71
2022/10/16 02:10:45;;;;;;;3.05;1.42;;;15.10;99.90;;;;;;2092678;28;20017;-71
2022/10/16 02:11:46;;;;;;;2.85;1.40;;;15.10;99.90;;;;;;2092148;28;20031;-71
2022/10/16 02:12:58;;;;;;;4.70;1.48;;;15.10;99.90;;;;;;2090487;28;20033;-71
2022/10/16 02:14:03;;;;;;;2.70;1.70;;;15.10;99.90;;;;;;2091849;28;20027;-71
2022/10/16 02:15:04;;;;;;;2.55;1.65;;;15.10;99.90;;;;;;2091197;28;20033;-71
2022/10/16 02:16:06;;;;;;;3.28;1.48;;;15.00;99.90;;;;;;2091837;28;20037;-71
2022/10/16 02:17:12;;;;;;;3.60;1.73;;;15.00;99.90;;;;;;2090356;28;20036;-71
2022/10/16 02:18:14;;;;;;;4.03;1.80;;;15.00;99.90;;;;;;2091961;28;20020;-71
2022/10/16 02:19:18;;;;;;;4.60;1.48;;;15.10;99.90;;;;;;2090885;28;20420;-71
2022/10/16 02:20:24;;;;;;;4.90;2.25;;;15.10;99.90;;;;;;2092794;28;20040;-71
2022/10/16 02:21:35;;;;;;;2.53;1.50;;;15.00;99.90;;;;;;2094706;28;20040;-71
2022/10/16 02:22:46;;;;;;;2.88;1.50;;;15.10;99.90;;;;;;2092249;28;20029;-71
2022/10/16 02:23:59;;;;;;;1.92;1.30;;;15.00;99.90;;;;;;2089938;28;20028;-71
2022/10/16 02:25:18;;;;;;;2.75;1.67;;;15.00;99.90;;;;;;2091676;28;20029;-71
2022/10/16 02:26:28;;;;;;;2.28;1.45;;;15.00;99.90;;;;;;2092744;28;20025;-71
2022/10/16 02:27:45;;;;;;;1.60;1.40;;;15.00;99.90;;;;;;2090298;28;20082;-71
2022/10/16 02:28:51;;;;;;;1.50;1.40;;;15.00;99.90;;;;;;2089560;28;20033;-71
2022/10/16 02:29:58;;;;;;;2.10;1.52;;;15.00;99.90;;;;;;2091147;28;20095;-71
2022/10/16 02:31:04;;;;;;;2.05;1.30;;;15.10;99.90;;;;;;2089308;28;20036;-71
2022/10/16 02:32:08;;;;;;;3.88;1.35;;;15.10;99.90;;;;;;2094204;28;20043;-71
2022/10/16 02:33:13;;;;;;;2.08;1.40;;;15.10;99.90;;;;;;2093745;28;20025;-71
2022/10/16 02:34:15;;;;;;;2.60;1.63;;;15.10;99.90;;;;;;2091814;28;20025;-71
2022/10/16 02:35:19;;;;;;;2.90;1.38;;;15.10;99.90;;;;;;2091133;28;20048;-71
2022/10/16 02:36:20;;;;;;;4.25;1.52;;;15.10;99.90;;;;;;2090573;28;20056;-71
2022/10/16 02:37:20;;;;;;;2.70;1.55;;;15.10;99.90;;;;;;2092616;28;20523;-71
2022/10/16 02:38:23;;;;;;;3.75;1.48;;;15.10;99.90;;;;;;2090996;28;20679;-71
2022/10/16 02:39:24;;;;;;;3.05;1.77;;;15.10;99.90;;;;;;2091565;28;20111;-71
2022/10/16 02:40:26;;;;;;;3.45;1.30;;;15.10;99.90;;;;;;2091879;28;20104;-71
2022/10/16 02:41:27;;;;;;;5.82;1.40;;;15.10;99.90;;;;;;2091975;28;20032;-71
2022/10/16 02:42:36;;;;;;;3.83;1.27;;;15.10;99.90;;;;;;2092306;28;20037;-71
2022/10/16 02:43:37;;;;;;;2.13;1.25;;;15.20;99.90;;;;;;2089671;28;20706;-71
2022/10/16 02:44:37;;;;;;;2.33;1.40;;;15.20;99.90;;;;;;2090167;28;20021;-71
2022/10/16 02:45:38;;;;;;;6.22;1.40;;;15.20;99.90;;;;;;2092074;28;20035;-71
2022/10/16 02:46:39;;;;;;;3.88;1.60;;;15.20;99.90;;;;;;2090424;28;20036;-71
2022/10/16 02:47:39;;;;;;;2.83;1.50;;;15.20;99.90;;;;;;2091496;28;20025;-71
2022/10/16 02:48:39;;;;;;;1.42;1.33;;;15.20;99.90;;;;;;2091244;28;20033;-71
2022/10/16 02:49:40;;;;;;;3.05;1.40;;;15.20;99.90;;;;;;2092296;28;20029;-71
2022/10/16 02:50:41;;;;;;;1.55;1.45;;;15.20;99.90;;;;;;2091493;28;20025;-71
2022/10/16 02:51:41;;;;;;;2.17;1.40;;;15.20;99.90;;;;;;2093929;28;20102;-71
2022/10/16 02:52:42;;;;;;;1.77;1.33;;;15.20;99.90;;;;;;2092753;28;20029;-71
2022/10/16 02:53:42;;;;;;;3.10;1.70;;;15.20;99.90;;;;;;2093715;28;20043;-71
2022/10/16 02:54:43;;;;;;;4.90;2.20;;;15.20;99.90;;;;;;2090802;28;20066;-71
2022/10/16 02:55:43;;;;;;;2.55;1.45;;;15.20;99.90;;;;;;2094335;28;20788;-71
2022/10/16 02:56:44;;;;;;;3.53;1.77;;;15.20;99.90;;;;;;2093357;28;20071;-71
2022/10/16 02:57:44;;;;;;;1.33;1.27;;;15.20;99.90;;;;;;2090753;28;20059;-71
2022/10/16 02:58:45;;;;;;;1.65;1.42;;;15.20;99.90;;;;;;2090417;28;20032;-71
2022/10/16 02:59:46;;;;;;;2.05;1.17;;;15.20;99.90;;;;;;2090870;28;20095;-71
2022/10/16 03:00:46;;;;;;;2.58;1.45;;;15.20;99.90;;;;;;2091670;28;20028;-72
2022/10/16 03:01:47;;;;;;;5.30;1.73;;;15.20;99.90;;;;;;2089306;28;20028;-71
2022/10/16 03:02:47;;;;;;;2.78;1.45;;;15.20;99.90;;;;;;2091384;28;20465;-71
2022/10/16 03:03:48;;;;;;;1.92;1.23;;;15.20;99.90;;;;;;2087046;28;20071;-71
2022/10/16 03:04:48;;;;;;;3.08;1.35;;;15.30;99.90;;;;;;2093999;28;20059;-71
2022/10/16 03:05:49;;;;;;;1.35;1.25;;;15.30;99.90;;;;;;2090932;28;20021;-71
2022/10/16 03:06:49;;;;;;;1.30;1.20;;;15.30;99.90;;;;;;2091333;28;20033;-71
2022/10/16 03:07:50;;;;;;;1.67;1.38;;;15.30;99.90;;;;;;2091354;28;20098;-71
2022/10/16 03:08:50;;;;;;;3.90;1.42;;;15.30;99.90;;;;;;2093590;28;20081;-71
2022/10/16 03:09:51;;;;;;;1.33;1.00;;;15.30;99.90;;;;;;2091666;28;20033;-71
2022/10/16 03:10:52;;;;;;;2.03;1.15;;;15.30;99.90;;;;;;2091986;28;20033;-71
2022/10/16 03:11:52;;;;;;;3.53;1.33;;;15.30;99.90;;;;;;2091902;28;20548;-71
2022/10/16 03:12:53;;;;;;;2.33;1.20;;;15.30;99.90;;;;;;2092581;28;20094;-71
2022/10/16 03:13:53;;;;;;;1.42;1.23;;;15.30;99.90;;;;;;2091527;28;20720;-71
2022/10/16 03:14:56;;;;;;;1.75;1.20;;;15.30;99.90;;;;;;2091938;28;20033;-71
2022/10/16 03:15:57;;;;;;;2.25;1.10;;;15.30;99.90;;;;;;2090556;28;20028;-71
2022/10/16 03:16:57;;;;;;;3.42;1.20;;;15.30;99.90;;;;;;2091168;28;20032;-71
2022/10/16 03:17:58;;;;;;;2.13;1.20;;;15.30;99.90;;;;;;2090122;28;20028;-71
2022/10/16 03:18:59;;;;;;;4.20;1.30;;;15.30;99.90;;;;;;2092801;28;20040;-71
2022/10/16 03:19:59;;;;;;;2.47;1.25;;;15.40;99.90;;;;;;2092420;28;20025;-71
2022/10/16 03:21:00;;;;;;;1.23;1.13;;;15.30;99.90;;;;;;2092123;28;20029;-71
2022/10/16 03:22:00;;;;;;;1.35;1.25;;;15.30;99.90;;;;;;2094669;28;20769;-71
2022/10/16 03:23:02;;;;;;;3.58;1.40;;;15.30;99.90;;;;;;2093761;28;20024;-71
2022/10/16 03:24:03;;;;;;;3.00;1.40;;;15.40;99.90;;;;;;2090753;28;20585;-71
2022/10/16 03:25:04;;;;;;;1.50;1.08;;;15.30;99.90;;;;;;2092216;28;20555;-71
2022/10/16 03:26:04;;;;;;;2.50;1.73;;;15.30;99.90;;;;;;2090523;28;20093;-71
2022/10/16 03:27:05;;;;;;;2.97;0.98;;;15.30;99.90;;;;;;2092395;28;20082;-71
2022/10/16 03:28:06;;;;;;;1.27;1.17;;;15.30;99.90;;;;;;2091195;28;20468;-71
2022/10/16 03:29:06;;;;;;;1.75;1.20;;;15.30;99.90;;;;;;2090774;28;20104;-71
2022/10/16 03:30:08;;;;;;;2.85;1.30;;;15.40;99.90;;;;;;2090774;28;20029;-71
2022/10/16 03:31:08;;;;;;;1.73;1.08;;;15.30;99.90;;;;;;2092053;28;20064;-71
2022/10/16 03:32:09;;;;;;;1.98;1.08;;;15.40;99.90;;;;;;2090648;28;20407;-71
2022/10/16 03:33:09;;;;;;;1.90;1.30;;;15.40;99.90;;;;;;2089960;28;20057;-71
2022/10/16 03:34:10;;;;;;;1.20;1.10;;;15.40;99.90;;;;;;2091436;28;20107;-71
2022/10/16 03:35:11;;;;;;;1.85;1.13;;;15.40;99.90;;;;;;2090475;28;20095;-71
2022/10/16 03:36:11;;;;;;;2.70;1.00;;;15.40;99.90;;;;;;2090075;28;20033;-71
2022/10/16 03:37:12;;;;;;;1.42;1.02;;;15.40;99.90;;;;;;2091266;28;20060;-71
2022/10/16 03:38:12;;;;;;;4.15;1.10;;;15.40;99.90;;;;;;2091870;28;20597;-71
2022/10/16 03:39:13;;;;;;;2.75;1.40;;;15.40;99.90;;;;;;2090883;28;20033;-71
2022/10/16 03:40:14;;;;;;;1.20;1.00;;;15.40;99.90;;;;;;2088576;28;20112;-71
2022/10/16 03:41:14;;;;;;;1.10;1.00;;;15.40;99.90;;;;;;2089712;28;20028;-71
2022/10/16 03:42:15;;;;;;;3.35;1.10;;;15.40;99.90;;;;;;2091230;28;20029;-71
2022/10/16 03:43:15;;;;;;;2.08;1.05;;;15.40;99.90;;;;;;2088644;28;20026;-71
2022/10/16 03:44:16;;;;;;;1.23;0.95;;;15.40;99.90;;;;;;2090690;28;20017;-71
2022/10/16 03:45:17;;;;;;;1.55;1.00;;;15.40;99.90;;;;;;2091413;28;20033;-71
2022/10/16 03:46:17;;;;;;;2.38;1.13;;;15.40;99.90;;;;;;2090455;28;20484;-71
2022/10/16 03:47:21;;;;;;;2.45;1.63;;;15.40;99.90;;;;;;2089597;28;20035;-71
2022/10/16 03:48:22;;;;;;;3.03;1.08;;;15.40;99.90;;;;;;2090629;28;20107;-71
2022/10/16 03:49:22;;;;;;;1.15;1.05;;;15.40;99.90;;;;;;2091539;28;20024;-71
2022/10/16 03:50:23;;;;;;;1.52;1.05;;;15.40;99.90;;;;;;2092493;28;20031;-71
2022/10/16 03:51:23;;;;;;;1.17;1.08;;;15.40;99.90;;;;;;2090721;28;20020;-71
2022/10/16 03:52:24;;;;;;;3.80;1.60;;;15.40;99.90;;;;;;2090311;28;20028;-71
2022/10/16 03:53:25;;;;;;;1.20;1.10;;;15.40;99.90;;;;;;2092040;28;20033;-71
2022/10/16 03:54:25;;;;;;;2.40;0.90;;;15.40;99.90;;;;;;2088382;28;20021;-71
2022/10/16 03:55:26;;;;;;;3.80;1.25;;;15.40;99.90;;;;;;2092088;28;20025;-71
2022/10/16 03:56:26;;;;;;;1.65;1.10;;;15.40;99.90;;;;;;2090444;28;20052;-71
2022/10/16 03:57:27;;;;;;;2.47;0.80;;;15.40;99.90;;;;;;2090132;28;20028;-71
2022/10/16 03:58:27;;;;;;;2.15;1.10;;;15.30;99.90;;;;;;2090453;28;20024;-71
2022/10/16 03:59:28;;;;;;;1.55;1.25;;;15.30;99.90;;;;;;2089573;28;20060;-71
2022/10/16 04:00:28;;;;;;;1.17;1.10;;;15.30;99.90;;;;;;2090480;28;20514;-71
2022/10/16 04:01:29;;;;;;;2.05;1.02;;;15.30;99.90;;;;;;2090349;28;20096;-71
2022/10/16 04:02:29;;;;;;;1.75;0.88;;;15.40;99.90;;;;;;2090963;28;20112;-71
2022/10/16 04:03:30;;;;;;;2.05;1.27;;;15.30;99.90;;;;;;2089987;28;20086;-71
2022/10/16 04:04:30;;;;;;;1.25;0.90;;;15.30;99.90;;;;;;2090598;28;20115;-71
2022/10/16 04:05:31;;;;;;;2.22;1.08;;;15.30;99.90;;;;;;2090795;28;20475;-71
2022/10/16 04:06:31;;;;;;;2.63;1.00;;;15.30;99.90;;;;;;2091642;28;20020;-71
2022/10/16 04:07:32;;;;;;;1.08;1.08;;;15.30;99.90;;;;;;2088697;28;20025;-71
2022/10/16 04:08:34;;;;;;;1.42;1.10;;;15.30;99.90;;;;;;2092089;28;20029;-71
2022/10/16 04:09:35;;;;;;;1.70;1.20;;;15.30;99.90;;;;;;2091041;28;20032;-71
2022/10/16 04:10:35;;;;;;;4.05;1.30;;;15.30;99.90;;;;;;2091968;28;20029;-71
2022/10/16 04:11:36;;;;;;;5.85;1.88;;;15.30;99.90;;;;;;2088706;28;20021;-71
2022/10/16 04:12:36;;;;;;;3.03;1.10;;;15.30;99.90;;;;;;2089759;28;20017;-71
2022/10/16 04:13:37;;;;;;;2.35;0.90;;;15.30;99.90;;;;;;2089838;28;20025;-71
2022/10/16 04:14:38;;;;;;;1.20;0.90;;;15.30;99.90;;;;;;2090444;28;20036;-71
2022/10/16 04:15:38;;;;;;;2.88;1.00;;;15.30;99.90;;;;;;2090463;28;20037;-71
2022/10/16 04:16:39;;;;;;;3.03;1.45;;;15.30;99.90;;;;;;2090066;28;20483;-71
2022/10/16 04:17:39;;;;;;;1.23;0.90;;;15.20;99.90;;;;;;2090544;28;20104;-71
2022/10/16 04:18:40;;;;;;;1.98;1.17;;;15.20;99.90;;;;;;2090108;28;20037;-71
2022/10/16 04:19:40;;;;;;;4.18;1.20;;;15.20;99.90;;;;;;2089413;28;20488;-71
2022/10/16 04:20:41;;;;;;;0.93;0.93;;;15.20;99.90;;;;;;2090934;28;20025;-71
2022/10/16 04:21:41;;;;;;;1.58;1.17;;;15.20;99.90;;;;;;2091067;28;20124;-71
2022/10/16 04:22:42;;;;;;;3.97;1.13;;;15.20;99.90;;;;;;2093031;28;20021;-71
2022/10/16 04:23:43;;;;;;;3.38;1.08;;;15.20;99.90;;;;;;2090440;28;20044;-71
2022/10/16 04:24:43;;;;;;;2.67;1.30;;;15.20;99.90;;;;;;2091038;28;20475;-71
2022/10/16 04:25:44;;;;;;;1.80;1.17;;;15.20;99.90;;;;;;2089807;28;20104;-71
2022/10/16 04:26:44;;;;;;;2.47;1.15;;;15.20;99.90;;;;;;2091119;28;20033;-71
2022/10/16 04:27:45;;;;;;;1.63;1.00;;;15.20;99.90;;;;;;2090480;28;20032;-71
2022/10/16 04:28:45;;;;;;;1.25;1.17;;;15.20;99.90;;;;;;2091204;28;20039;-71
2022/10/16 04:29:46;;;;;;;0.90;0.90;;;15.20;99.90;;;;;;2088981;28;20017;-71
2022/10/16 04:30:46;;;;;;;1.15;0.80;;;15.20;99.90;;;;;;2089951;28;20124;-71
2022/10/16 04:31:47;;;;;;;1.63;1.13;;;15.20;99.90;;;;;;2091010;28;20036;-71
2022/10/16 04:32:51;;;;;;;2.30;1.10;;;15.20;99.90;;;;;;2090729;28;20036;-71
2022/10/16 04:33:51;;;;;;;2.60;1.02;;;15.20;99.90;;;;;;2090250;28;20512;-71
2022/10/16 04:34:52;;;;;;;1.17;1.08;;;15.20;99.90;;;;;;2090287;28;20593;-71
2022/10/16 04:35:57;;;;;;;1.15;0.98;;;15.20;99.90;;;;;;2090382;28;20128;-71
2022/10/16 04:36:58;;;;;;;3.95;1.30;;;15.20;99.90;;;;;;2092094;28;20031;-71
2022/10/16 04:37:58;;;;;;;11.52;2.13;;;15.10;99.90;;;;;;2090558;28;20071;-71
2022/10/16 04:38:59;;;;;;;1.50;1.30;;;15.10;99.90;;;;;;2089920;28;20033;-71
2022/10/16 04:39:59;;;;;;;3.70;1.10;;;15.10;99.90;;;;;;2090382;28;20071;-71
2022/10/16 04:41:00;;;;;;;2.30;1.13;;;15.10;99.90;;;;;;2090999;28;20759;-71
2022/10/16 04:42:00;;;;;;;4.13;1.20;;;15.10;99.90;;;;;;2094191;28;20580;-71
2022/10/16 04:43:02;;;;;;;3.83;1.02;;;15.10;99.90;;;;;;2090485;28;20458;-71
2022/10/16 04:44:02;;;;;;;3.17;1.40;;;15.10;99.90;;;;;;2090954;28;20020;-71
2022/10/16 04:45:04;;;;;;;1.10;1.00;;;15.10;99.90;;;;;;2090458;28;20108;-71
2022/10/16 04:46:05;;;;;;;1.17;1.02;;;15.10;99.90;;;;;;2089249;28;20785;-71
2022/10/16 04:47:06;;;;;;;0.90;0.90;;;15.10;99.90;;;;;;2091584;28;20094;-71
2022/10/16 04:48:06;;;;;;;3.67;1.23;;;15.10;99.90;;;;;;2089884;28;20028;-71
2022/10/16 04:49:07;;;;;;;1.67;1.05;;;15.10;99.90;;;;;;2089217;28;20550;-71
2022/10/16 04:50:08;;;;;;;2.60;0.88;;;15.10;99.90;;;;;;2091057;28;20087;-71
2022/10/16 04:51:08;;;;;;;1.10;1.00;;;15.10;99.90;;;;;;2090551;28;20040;-71
2022/10/16 04:52:09;;;;;;;1.42;1.17;;;15.10;99.90;;;;;;2092975;28;20112;-71
2022/10/16 04:53:10;;;;;;;2.13;1.10;;;15.10;99.90;;;;;;2094324;28;20028;-71
2022/10/16 04:54:10;;;;;;;4.20;1.08;;;15.10;99.90;;;;;;2089148;28;20032;-71
2022/10/16 04:55:11;;;;;;;1.08;0.95;;;15.10;99.90;;;;;;2090381;28;20032;-71
2022/10/16 04:56:11;;;;;;;1.30;0.88;;;15.10;99.90;;;;;;2091308;28;20106;-71
2022/10/16 04:57:12;;;;;;;3.40;0.90;;;15.10;99.90;;;;;;2089728;28;20027;-71
2022/10/16 04:58:12;;;;;;;4.28;1.23;;;15.00;99.90;;;;;;2090223;28;20021;-71
2022/10/16 04:59:17;;;;;;;2.20;0.93;;;15.00;99.90;;;;;;2090663;28;20435;-71
2022/10/16 05:00:17;;;;;;;1.58;0.95;;;15.00;99.90;;;;;;2089611;28;20032;-71
2022/10/16 05:01:18;;;;;;;2.17;1.10;;;15.00;99.90;;;;;;2090198;28;20127;-71
2022/10/16 05:02:18;;;;;;;1.25;1.02;;;15.00;99.90;;;;;;2089080;28;20612;-71
2022/10/16 05:03:19;;;;;;;1.50;0.98;;;15.00;99.90;;;;;;2090748;28;20043;-71
2022/10/16 05:04:19;;;;;;;2.50;1.20;;;15.00;99.90;;;;;;2092138;28;20074;-71
2022/10/16 05:05:20;;;;;;;2.25;1.08;;;15.00;99.90;;;;;;2089376;28;20025;-71
2022/10/16 05:06:20;;;;;;;1.13;0.88;;;15.00;99.90;;;;;;2090233;28;20063;-71
2022/10/16 05:07:21;;;;;;;1.52;0.82;;;15.00;99.90;;;;;;2090950;28;20032;-71
2022/10/16 05:08:21;;;;;;;2.00;0.80;;;15.00;99.90;;;;;;2090164;28;20029;-71
2022/10/16 05:09:22;;;;;;;2.90;1.10;;;15.00;99.90;;;;;;2088661;28;20019;-71
2022/10/16 05:10:22;;;;;;;2.28;0.93;;;15.00;99.90;;;;;;2091593;28;20047;-71
2022/10/16 05:11:23;;;;;;;1.25;1.15;;;15.00;99.90;;;;;;2091079;28;20027;-71
2022/10/16 05:12:23;;;;;;;0.93;0.77;;;15.00;99.90;;;;;;2091447;28;20021;-72
2022/10/16 05:13:24;;;;;;;2.03;1.00;;;15.00;99.90;;;;;;2090311;28;20033;-71
2022/10/16 05:14:24;;;;;;;1.80;1.00;;;15.00;99.90;;;;;;2089612;28;20020;-71
2022/10/16 05:15:25;;;;;;;1.05;0.90;;;15.00;99.90;;;;;;2090199;28;20056;-71
2022/10/16 05:16:26;;;;;;;1.77;0.82;;;15.00;99.90;;;;;;2088441;28;20017;-71
2022/10/16 05:17:27;;;;;;;2.97;0.75;;;15.00;99.90;;;;;;2090855;28;20025;-71
2022/10/16 05:18:27;;;;;;;3.28;1.30;;;15.00;99.90;;;;;;2090294;28;20510;-71
2022/10/16 05:19:27;;;;;;;1.20;0.80;;;15.00;99.90;;;;;;2092000;28;20040;-71
2022/10/16 05:20:28;;;;;;;1.17;1.08;;;15.00;99.90;;;;;;2090876;28;20036;-71
2022/10/16 05:21:29;;;;;;;3.78;0.85;;;15.00;99.90;;;;;;2091831;28;20537;-71
2022/10/16 05:22:29;;;;;;;3.40;1.15;;;15.00;99.90;;;;;;2090259;28;20037;-71
2022/10/16 05:23:30;;;;;;;0.80;0.80;;;15.00;99.90;;;;;;2092145;28;20036;-71
2022/10/16 05:24:30;;;;;;;2.05;0.90;;;15.00;99.90;;;;;;2090685;28;20377;-71
2022/10/16 05:25:31;;;;;;;1.38;1.27;;;14.90;99.90;;;;;;2091741;28;20468;-71
2022/10/16 05:26:31;;;;;;;1.83;1.00;;;15.00;99.90;;;;;;2090437;28;20538;-71
2022/10/16 05:27:32;;;;;;;5.60;0.95;;;15.00;99.90;;;;;;2091417;28;20021;-71
2022/10/16 05:28:32;;;;;;;2.63;1.15;;;15.00;99.90;;;;;;2091712;28;20033;-71